Time,TemperatureF,DewpointF,PressureIn,WindDirection,WindDirectionDegrees,WindSpeedMPH,WindSpeedGustMPH,Humidity,HourlyPrecipIn,Conditions,Clouds,dailyrainin,SoftwareType,DateUTC
2013-01-23 00:00:00,17.6,14.9,30.16,NE,49,0.0,0.0,89,0.00,,,0.00,Wunderground v.1.12,2013-01-23 07:00:00,
2013-01-23 00:05:00,17.7,15.0,30.16,NE,47,0.0,0.0,89,0.00,,,0.00,Wunderground v.1.12,2013-01-23 07:05:00,
2013-01-23 00:15:00,17.5,14.8,30.16,NE,48,0.0,0.0,89,0.00,,,0.00,Wunderground v.1.12,2013-01-23 07:15:00,
2013-01-23 00:20:00,17.8,15.1,30.15,NE,46,0.0,0.0,89,0.00,,,0.00,Wunderground v.1.12,2013-01-23 07:20:00,
2013-01-23 00:25:00,17.8,15.4,30.15,NE,46,0.0,0.0,90,0.00,,,0.00,Wunderground v.1.12,2013-01-23 07:25:00,
2013-01-23 00:30:00,18.0,15.3,30.16,NE,47,0.0,0.0,89,0.00,,,0.00,Wunderground v.1.12,2013-01-23 07:30:00,
2013-01-23 00:35:00,17.7,15.3,30.16,NE,44,0.0,0.0,90,0.00,,,0.00,Wunderground v.1.12,2013-01-23 07:35:00,
2013-01-23 00:40:00,17.9,15.5,30.16,NE,44,0.0,0.0,90,0.00,,,0.00,Wunderground v.1.12,2013-01-23 07:40:00,
2013-01-23 00:45:00,17.6,15.2,30.16,NE,44,0.0,0.0,90,0.00,,,0.00,Wunderground v.1.12,2013-01-23 07:45:00,
2013-01-23 00:55:00,17.7,15.5,30.16,NE,44,0.0,0.0,91,0.00,,,0.00,Wunderground v.1.12,2013-01-23 07:55:00,
2013-01-23 01:00:00,18.0,15.6,30.16,NE,44,0.0,0.0,90,0.00,,,0.00,Wunderground v.1.12,2013-01-23 08:00:00,
2013-01-23 01:05:00,18.0,15.6,30.16,NE,44,0.0,0.0,90,0.00,,,0.00,Wunderground v.1.12,2013-01-23 08:05:00,
2013-01-23 01:10:00,17.9,15.7,30.16,NE,44,0.0,0.0,91,0.00,,,0.00,Wunderground v.1.12,2013-01-23 08:10:00,
2013-01-23 01:15:00,18.4,16.2,30.16,NE,44,0.0,0.0,91,0.00,,,0.00,Wunderground v.1.12,2013-01-23 08:15:00,
2013-01-23 01:20:00,18.3,16.1,30.16,NE,44,0.0,0.0,91,0.00,,,0.00,Wunderground v.1.12,2013-01-23 08:20:00,
2013-01-23 01:30:00,18.1,15.7,30.16,NE,44,0.0,0.0,90,0.00,,,0.00,Wunderground v.1.12,2013-01-23 08:30:00,
2013-01-23 01:35:00,18.3,15.9,30.16,NE,44,0.0,0.0,90,0.00,,,0.00,Wunderground v.1.12,2013-01-23 08:35:00,
2013-01-23 01:40:00,18.2,15.8,30.16,NE,44,0.0,0.0,90,0.00,,,0.00,Wunderground v.1.12,2013-01-23 08:40:00,
2013-01-23 01:45:00,18.2,16.0,30.16,NE,44,0.0,0.0,91,0.00,,,0.00,Wunderground v.1.12,2013-01-23 08:45:00,
2013-01-23 01:50:00,18.2,16.0,30.16,NE,44,0.0,0.0,91,0.00,,,0.00,Wunderground v.1.12,2013-01-23 08:50:00,
2013-01-23 01:55:00,18.3,15.9,30.16,NE,44,0.0,0.0,90,0.00,,,0.00,Wunderground v.1.12,2013-01-23 08:55:00,
2013-01-23 02:00:00,18.3,15.9,30.16,NE,44,0.0,0.0,90,0.00,,,0.00,Wunderground v.1.12,2013-01-23 09:00:00,
2013-01-23 02:05:00,18.5,16.1,30.16,NE,44,0.0,0.0,90,0.00,,,0.00,Wunderground v.1.12,2013-01-23 09:05:00,
2013-01-23 02:15:00,18.0,15.3,30.16,NE,44,0.0,0.0,89,0.00,,,0.00,Wunderground v.1.12,2013-01-23 09:15:00,
2013-01-23 02:20:00,18.0,15.3,30.16,NE,44,0.0,0.0,89,0.00,,,0.00,Wunderground v.1.12,2013-01-23 09:20:00,
2013-01-23 02:25:00,17.9,15.2,30.15,NE,44,0.0,0.0,89,0.00,,,0.00,Wunderground v.1.12,2013-01-23 09:25:00,
2013-01-23 02:35:00,17.5,14.8,30.15,NE,52,0.0,0.0,89,0.00,,,0.00,Wunderground v.1.12,2013-01-23 09:35:00,
2013-01-23 02:40:00,17.4,14.7,30.16,NE,52,0.0,0.0,89,0.00,,,0.00,Wunderground v.1.12,2013-01-23 09:40:00,
2013-01-23 02:45:00,17.7,15.0,30.16,NE,52,0.0,0.0,89,0.00,,,0.00,Wunderground v.1.12,2013-01-23 09:45:00,
2013-01-23 02:50:00,17.1,14.4,30.16,NE,52,0.0,0.0,89,0.00,,,0.00,Wunderground v.1.12,2013-01-23 09:50:00,
2013-01-23 02:55:00,17.4,14.7,30.16,NE,52,0.0,0.0,89,0.00,,,0.00,Wunderground v.1.12,2013-01-23 09:55:00,
2013-01-23 03:00:00,17.4,15.0,30.16,NE,52,0.0,0.0,90,0.00,,,0.00,Wunderground v.1.12,2013-01-23 10:00:00,
2013-01-23 03:05:00,17.3,14.9,30.16,NE,52,0.0,0.0,90,0.00,,,0.00,Wunderground v.1.12,2013-01-23 10:05:00,
2013-01-23 03:10:00,17.3,14.9,30.16,NE,52,0.0,0.0,90,0.00,,,0.00,Wunderground v.1.12,2013-01-23 10:10:00,
2013-01-23 03:15:00,17.1,14.4,30.15,NE,52,0.0,0.0,89,0.00,,,0.00,Wunderground v.1.12,2013-01-23 10:15:00,
2013-01-23 03:20:00,17.4,15.0,30.16,NE,52,0.0,0.0,90,0.00,,,0.00,Wunderground v.1.12,2013-01-23 10:20:00,
2013-01-23 03:25:00,17.7,15.3,30.16,NE,52,0.0,0.0,90,0.00,,,0.00,Wunderground v.1.12,2013-01-23 10:25:00,
2013-01-23 03:35:00,17.5,15.1,30.16,NE,52,0.0,0.0,90,0.00,,,0.00,Wunderground v.1.12,2013-01-23 10:35:00,
2013-01-23 03:40:00,17.3,14.9,30.15,NE,52,0.0,0.0,90,0.00,,,0.00,Wunderground v.1.12,2013-01-23 10:40:00,
2013-01-23 03:45:00,17.6,15.2,30.15,NE,52,0.0,0.0,90,0.00,,,0.00,Wunderground v.1.12,2013-01-23 10:45:00,
2013-01-23 03:50:00,17.4,15.0,30.15,NE,52,0.0,0.0,90,0.00,,,0.00,Wunderground v.1.12,2013-01-23 10:50:00,
2013-01-23 03:55:00,17.4,15.2,30.15,NE,52,0.0,0.0,91,0.00,,,0.00,Wunderground v.1.12,2013-01-23 10:55:00,
2013-01-23 04:00:00,17.7,15.5,30.15,NE,52,0.0,0.0,91,0.00,,,0.00,Wunderground v.1.12,2013-01-23 11:00:00,
2013-01-23 04:10:00,17.8,15.9,30.16,ENE,59,0.0,0.0,92,0.00,,,0.00,Wunderground v.1.12,2013-01-23 11:10:00,
2013-01-23 04:15:00,17.7,15.5,30.16,ENE,59,0.0,0.0,91,0.00,,,0.00,Wunderground v.1.12,2013-01-23 11:15:00,
2013-01-23 04:20:00,17.7,15.5,30.16,ENE,59,0.0,0.0,91,0.00,,,0.00,Wunderground v.1.12,2013-01-23 11:20:00,
2013-01-23 04:25:00,17.8,15.6,30.16,ENE,59,0.0,0.0,91,0.00,,,0.00,Wunderground v.1.12,2013-01-23 11:25:00,
2013-01-23 04:30:00,18.1,15.9,30.15,ENE,59,0.0,0.0,91,0.00,,,0.00,Wunderground v.1.12,2013-01-23 11:30:00,
2013-01-23 04:35:00,17.7,15.5,30.15,ENE,59,0.0,0.0,91,0.00,,,0.00,Wunderground v.1.12,2013-01-23 11:35:00,
2013-01-23 04:40:00,18.0,15.8,30.15,ENE,59,0.0,0.0,91,0.00,,,0.00,Wunderground v.1.12,2013-01-23 11:40:00,
2013-01-23 04:45:00,18.0,15.8,30.15,ENE,59,0.0,0.0,91,0.00,,,0.00,Wunderground v.1.12,2013-01-23 11:45:00,
2013-01-23 04:50:00,18.1,15.9,30.16,ENE,59,0.0,0.0,91,0.00,,,0.00,Wunderground v.1.12,2013-01-23 11:50:00,
2013-01-23 04:55:00,18.0,15.8,30.15,ENE,59,0.0,0.0,91,0.00,,,0.00,Wunderground v.1.12,2013-01-23 11:55:00,
2013-01-23 05:00:00,17.9,15.7,30.15,ENE,59,0.0,0.0,91,0.00,,,0.00,Wunderground v.1.12,2013-01-23 12:00:00,
2013-01-23 05:10:00,18.0,15.8,30.15,ENE,59,0.0,0.0,91,0.00,,,0.00,Wunderground v.1.12,2013-01-23 12:10:00,
2013-01-23 05:15:00,18.1,15.9,30.15,ENE,57,0.0,0.0,91,0.00,,,0.00,Wunderground v.1.12,2013-01-23 12:15:00,
2013-01-23 05:20:00,18.1,15.9,30.15,ENE,57,0.0,0.0,91,0.00,,,0.00,Wunderground v.1.12,2013-01-23 12:20:00,
2013-01-23 05:25:00,18.2,15.8,30.15,ENE,57,0.0,0.0,90,0.00,,,0.00,Wunderground v.1.12,2013-01-23 12:25:00,
2013-01-23 05:30:00,17.8,15.4,30.14,ENE,57,0.0,0.0,90,0.00,,,0.00,Wunderground v.1.12,2013-01-23 12:30:00,
2013-01-23 05:35:00,17.8,15.6,30.14,ENE,57,0.0,0.0,91,0.00,,,0.00,Wunderground v.1.12,2013-01-23 12:35:00,
2013-01-23 05:45:00,17.6,15.2,30.14,ENE,57,0.0,0.0,90,0.00,,,0.00,Wunderground v.1.12,2013-01-23 12:45:00,
2013-01-23 05:50:00,17.6,15.4,30.14,ENE,57,0.0,0.0,91,0.00,,,0.00,Wunderground v.1.12,2013-01-23 12:50:00,
2013-01-23 05:55:00,17.3,15.1,30.14,ENE,57,0.0,0.0,91,0.00,,,0.00,Wunderground v.1.12,2013-01-23 12:55:00,
2013-01-23 06:05:00,17.9,15.7,30.14,ENE,57,0.0,0.0,91,0.00,,,0.00,Wunderground v.1.12,2013-01-23 13:05:00,
2013-01-23 06:10:00,17.7,15.8,30.14,ENE,57,0.0,0.0,92,0.00,,,0.00,Wunderground v.1.12,2013-01-23 13:10:00,
2013-01-23 06:15:00,17.8,15.6,30.15,ENE,57,0.0,0.0,91,0.00,,,0.00,Wunderground v.1.12,2013-01-23 13:15:00,
2013-01-23 06:20:00,17.8,15.6,30.14,ENE,57,0.0,0.0,91,0.00,,,0.00,Wunderground v.1.12,2013-01-23 13:20:00,
2013-01-23 06:25:00,17.7,15.5,30.14,ENE,57,0.0,0.0,91,0.00,,,0.00,Wunderground v.1.12,2013-01-23 13:25:00,
2013-01-23 06:30:00,17.8,15.6,30.13,ENE,57,0.0,0.0,91,0.00,,,0.00,Wunderground v.1.12,2013-01-23 13:30:00,
2013-01-23 06:35:00,17.9,15.7,30.13,ENE,57,0.0,0.0,91,0.00,,,0.00,Wunderground v.1.12,2013-01-23 13:35:00,
2013-01-23 06:40:00,17.9,15.7,30.13,ENE,57,0.0,0.0,91,0.00,,,0.00,Wunderground v.1.12,2013-01-23 13:40:00,
2013-01-23 06:50:00,17.9,15.5,30.14,ENE,57,0.0,0.0,90,0.00,,,0.00,Wunderground v.1.12,2013-01-23 13:50:00,
2013-01-23 06:55:00,17.8,15.6,30.13,ENE,57,0.0,0.0,91,0.00,,,0.00,Wunderground v.1.12,2013-01-23 13:55:00,
2013-01-23 07:05:00,17.7,15.5,30.13,ENE,57,0.0,0.0,91,0.00,,,0.00,Wunderground v.1.12,2013-01-23 14:05:00,
2013-01-23 07:10:00,17.9,15.7,30.13,ENE,57,0.0,0.0,91,0.00,,,0.00,Wunderground v.1.12,2013-01-23 14:10:00,
2013-01-23 07:20:00,18.0,15.8,30.13,ENE,57,0.0,0.0,91,0.00,,,0.00,Wunderground v.1.12,2013-01-23 14:20:00,
2013-01-23 07:25:00,17.8,15.6,30.13,ENE,57,0.0,0.0,91,0.00,,,0.00,Wunderground v.1.12,2013-01-23 14:25:00,
2013-01-23 07:30:00,17.9,15.7,30.13,ENE,57,0.0,0.0,91,0.00,,,0.00,Wunderground v.1.12,2013-01-23 14:30:00,
2013-01-23 07:35:00,17.9,15.7,30.13,ENE,57,0.0,0.0,91,0.00,,,0.00,Wunderground v.1.12,2013-01-23 14:35:00,
2013-01-23 07:40:00,17.7,15.5,30.13,ENE,57,0.0,0.0,91,0.00,,,0.00,Wunderground v.1.12,2013-01-23 14:40:00,
2013-01-23 07:45:00,18.1,15.9,30.12,ENE,57,0.0,0.0,91,0.00,,,0.00,Wunderground v.1.12,2013-01-23 14:45:00,
2013-01-23 07:50:00,17.9,15.7,30.12,ENE,57,0.0,0.0,91,0.00,,,0.00,Wunderground v.1.12,2013-01-23 14:50:00,
2013-01-23 08:00:00,17.8,15.6,30.12,ENE,57,0.0,0.0,91,0.00,,,0.00,Wunderground v.1.12,2013-01-23 15:00:00,
2013-01-23 08:05:00,17.7,15.5,30.12,ENE,57,0.0,0.0,91,0.00,,,0.00,Wunderground v.1.12,2013-01-23 15:05:00,
2013-01-23 08:10:00,17.7,15.5,30.12,ENE,57,0.0,0.0,91,0.00,,,0.00,Wunderground v.1.12,2013-01-23 15:10:00,
2013-01-23 08:15:00,17.6,15.4,30.12,ENE,57,0.0,0.0,91,0.00,,,0.00,Wunderground v.1.12,2013-01-23 15:15:00,
2013-01-23 08:25:00,17.7,15.5,30.11,ENE,57,0.0,0.0,91,0.00,,,0.00,Wunderground v.1.12,2013-01-23 15:25:00,
2013-01-23 08:30:00,17.6,15.4,30.12,ENE,57,0.0,0.0,91,0.00,,,0.00,Wunderground v.1.12,2013-01-23 15:30:00,
2013-01-23 08:35:00,17.5,15.3,30.12,ENE,57,0.0,0.0,91,0.00,,,0.00,Wunderground v.1.12,2013-01-23 15:35:00,
2013-01-23 08:40:00,17.3,14.9,30.11,ENE,57,0.0,0.0,90,0.00,,,0.00,Wunderground v.1.12,2013-01-23 15:40:00,
2013-01-23 08:45:00,17.5,15.3,30.11,ENE,57,0.0,0.0,91,0.00,,,0.00,Wunderground v.1.12,2013-01-23 15:45:00,
2013-01-23 08:50:00,17.7,15.5,30.11,ENE,57,0.0,0.0,91,0.00,,,0.00,Wunderground v.1.12,2013-01-23 15:50:00,
2013-01-23 08:55:00,17.8,15.6,30.11,ENE,57,0.0,0.0,91,0.00,,,0.00,Wunderground v.1.12,2013-01-23 15:55:00,
2013-01-23 09:00:00,17.5,15.3,30.10,ENE,57,0.0,0.0,91,0.00,,,0.00,Wunderground v.1.12,2013-01-23 16:00:00,
2013-01-23 09:05:00,17.6,15.4,30.11,ENE,57,0.0,0.0,91,0.00,,,0.00,Wunderground v.1.12,2013-01-23 16:05:00,
2013-01-23 09:10:00,17.8,15.6,30.11,ENE,57,0.0,0.0,91,0.00,,,0.00,Wunderground v.1.12,2013-01-23 16:10:00,
2013-01-23 09:15:00,17.9,15.7,30.11,ENE,57,0.0,0.0,91,0.00,,,0.00,Wunderground v.1.12,2013-01-23 16:15:00,
2013-01-23 09:20:00,17.9,15.7,30.12,ENE,57,0.0,0.0,91,0.00,,,0.00,Wunderground v.1.12,2013-01-23 16:20:00,
2013-01-23 09:30:00,17.7,15.5,30.11,ENE,57,0.0,0.0,91,0.00,,,0.00,Wunderground v.1.12,2013-01-23 16:30:00,
2013-01-23 09:35:00,17.8,15.6,30.11,ENE,57,0.0,0.0,91,0.00,,,0.00,Wunderground v.1.12,2013-01-23 16:35:00,
2013-01-23 09:40:00,18.6,16.4,30.10,ENE,57,0.0,0.0,91,0.00,,,0.00,Wunderground v.1.12,2013-01-23 16:40:00,
2013-01-23 09:45:00,18.3,16.1,30.10,ENE,57,0.0,0.0,91,0.00,,,0.00,Wunderground v.1.12,2013-01-23 16:45:00,
2013-01-23 09:50:00,18.4,16.2,30.10,ENE,57,0.0,0.0,91,0.00,,,0.00,Wunderground v.1.12,2013-01-23 16:50:00,
2013-01-23 09:55:00,18.5,16.3,30.11,ENE,57,0.0,0.0,91,0.00,,,0.00,Wunderground v.1.12,2013-01-23 16:55:00,
2013-01-23 10:00:00,18.5,16.6,30.11,ENE,57,0.0,0.0,92,0.00,,,0.00,Wunderground v.1.12,2013-01-23 17:00:00,
2013-01-23 10:05:00,19.0,17.1,30.12,ENE,57,0.0,0.0,92,0.00,,,0.00,Wunderground v.1.12,2013-01-23 17:05:00,
2013-01-23 10:10:00,19.1,16.9,30.11,ENE,57,0.0,0.0,91,0.00,,,0.00,Wunderground v.1.12,2013-01-23 17:10:00,
2013-01-23 10:15:00,19.3,17.1,30.11,ENE,57,0.0,0.0,91,0.00,,,0.00,Wunderground v.1.12,2013-01-23 17:15:00,
2013-01-23 10:25:00,19.6,17.7,30.11,ENE,57,0.0,0.0,92,0.00,,,0.00,Wunderground v.1.12,2013-01-23 17:25:00,
2013-01-23 10:30:00,19.9,18.0,30.10,ENE,57,0.0,0.0,92,0.00,,,0.00,Wunderground v.1.12,2013-01-23 17:30:00,
2013-01-23 10:35:00,20.2,18.2,30.10,ENE,57,0.0,0.0,92,0.00,,,0.00,Wunderground v.1.12,2013-01-23 17:35:00,
2013-01-23 10:45:00,20.7,18.7,30.10,ENE,57,0.0,0.0,92,0.00,,,0.00,Wunderground v.1.12,2013-01-23 17:45:00,
2013-01-23 10:50:00,20.9,18.9,30.10,ENE,57,0.0,0.0,92,0.00,,,0.00,Wunderground v.1.12,2013-01-23 17:50:00,
2013-01-23 10:55:00,21.0,19.0,30.10,ENE,57,0.0,0.0,92,0.00,,,0.00,Wunderground v.1.12,2013-01-23 17:55:00,
2013-01-23 11:00:00,21.1,19.1,30.09,ENE,57,0.0,0.0,92,0.00,,,0.00,Wunderground v.1.12,2013-01-23 18:00:00,
2013-01-23 11:05:00,21.3,19.3,30.09,ENE,57,0.0,0.0,92,0.00,,,0.00,Wunderground v.1.12,2013-01-23 18:05:00,
2013-01-23 11:10:00,21.6,19.6,30.09,ENE,57,0.0,0.0,92,0.00,,,0.00,Wunderground v.1.12,2013-01-23 18:10:00,
2013-01-23 11:15:00,21.6,19.6,30.09,ENE,57,0.0,0.0,92,0.00,,,0.00,Wunderground v.1.12,2013-01-23 18:15:00,
2013-01-23 11:25:00,21.7,19.5,30.08,SE,124,0.0,0.0,91,0.00,,,0.00,Wunderground v.1.12,2013-01-23 18:25:00,
2013-01-23 11:30:00,21.7,19.5,30.08,SE,124,0.0,0.0,91,0.00,,,0.00,Wunderground v.1.12,2013-01-23 18:30:00,
2013-01-23 11:40:00,22.1,19.9,30.07,SE,124,0.0,0.0,91,0.00,,,0.00,Wunderground v.1.12,2013-01-23 18:40:00,
2013-01-23 11:45:00,22.4,20.2,30.08,SE,124,0.0,0.0,91,0.00,,,0.00,Wunderground v.1.12,2013-01-23 18:45:00,
2013-01-23 11:50:00,22.7,20.5,30.08,SE,125,0.0,0.0,91,0.00,,,0.00,Wunderground v.1.12,2013-01-23 18:50:00,
2013-01-23 11:55:00,23.0,20.8,30.08,SE,124,0.0,0.0,91,0.00,,,0.00,Wunderground v.1.12,2013-01-23 18:55:00,
2013-01-23 12:00:00,23.2,20.7,30.07,SE,124,0.0,0.0,90,0.00,,,0.00,Wunderground v.1.12,2013-01-23 19:00:00,
2013-01-23 12:05:00,23.2,20.7,30.07,SE,125,0.0,0.0,90,0.00,,,0.00,Wunderground v.1.12,2013-01-23 19:05:00,
2013-01-23 12:15:00,23.5,20.7,30.07,SE,124,0.0,0.0,89,0.00,,,0.00,Wunderground v.1.12,2013-01-23 19:15:00,
2013-01-23 12:20:00,23.7,21.2,30.06,SE,124,0.0,0.0,90,0.00,,,0.00,Wunderground v.1.12,2013-01-23 19:20:00,
2013-01-23 12:25:00,23.8,21.3,30.06,SE,124,0.0,0.0,90,0.00,,,0.00,Wunderground v.1.12,2013-01-23 19:25:00,
2013-01-23 12:30:00,23.9,21.4,30.06,SE,125,0.0,0.0,90,0.00,,,0.00,Wunderground v.1.12,2013-01-23 19:30:00,
2013-01-23 12:35:00,24.0,21.5,30.06,SE,124,0.0,0.0,90,0.00,,,0.00,Wunderground v.1.12,2013-01-23 19:35:00,
2013-01-23 12:45:00,24.8,22.0,30.06,SE,124,0.0,0.0,89,0.00,,,0.00,Wunderground v.1.12,2013-01-23 19:45:00,
2013-01-23 12:50:00,24.7,21.9,30.05,SE,125,0.0,0.0,89,0.00,,,0.00,Wunderground v.1.12,2013-01-23 19:50:00,
2013-01-23 12:55:00,24.4,21.4,30.05,South,178,0.0,0.0,88,0.00,,,0.00,Wunderground v.1.12,2013-01-23 19:55:00,
2013-01-23 13:00:00,24.5,21.5,30.04,South,178,0.0,0.0,88,0.00,,,0.00,Wunderground v.1.12,2013-01-23 20:00:00,
2013-01-23 13:05:00,24.4,21.4,30.04,South,178,0.0,0.0,88,0.00,,,0.00,Wunderground v.1.12,2013-01-23 20:05:00,
2013-01-23 13:10:00,24.4,21.6,30.03,South,178,0.0,0.0,89,0.00,,,0.00,Wunderground v.1.12,2013-01-23 20:10:00,
2013-01-23 13:20:00,24.8,21.8,30.03,South,178,0.0,0.0,88,0.00,,,0.00,Wunderground v.1.12,2013-01-23 20:20:00,
2013-01-23 13:25:00,25.4,22.3,30.03,South,178,0.0,0.0,88,0.00,,,0.00,Wunderground v.1.12,2013-01-23 20:25:00,
2013-01-23 13:30:00,25.3,22.0,30.03,South,178,0.0,0.0,87,0.00,,,0.00,Wunderground v.1.12,2013-01-23 20:30:00,
2013-01-23 13:35:00,25.1,21.8,30.02,South,178,0.0,0.0,87,0.00,,,0.00,Wunderground v.1.12,2013-01-23 20:35:00,
2013-01-23 13:40:00,24.9,21.8,30.03,South,178,0.0,0.0,88,0.00,,,0.00,Wunderground v.1.12,2013-01-23 20:40:00,
2013-01-23 13:45:00,25.2,21.9,30.02,South,178,0.0,0.0,87,0.00,,,0.00,Wunderground v.1.12,2013-01-23 20:45:00,
2013-01-23 13:50:00,24.9,21.6,30.03,South,178,0.0,0.0,87,0.00,,,0.00,Wunderground v.1.12,2013-01-23 20:50:00,
2013-01-23 13:55:00,25.0,21.7,30.02,South,178,0.0,0.0,87,0.00,,,0.00,Wunderground v.1.12,2013-01-23 20:55:00,
2013-01-23 14:00:00,25.0,21.9,30.02,South,178,0.0,0.0,88,0.00,,,0.00,Wunderground v.1.12,2013-01-23 21:00:00,
2013-01-23 14:05:00,24.9,21.8,30.02,South,178,0.0,0.0,88,0.00,,,0.00,Wunderground v.1.12,2013-01-23 21:05:00,
2013-01-23 14:10:00,25.4,22.1,30.02,South,177,0.0,0.0,87,0.00,,,0.00,Wunderground v.1.12,2013-01-23 21:10:00,
2013-01-23 14:15:00,25.4,22.3,30.01,South,177,0.0,0.0,88,0.00,,,0.00,Wunderground v.1.12,2013-01-23 21:15:00,
2013-01-23 14:25:00,25.7,22.6,30.01,South,177,0.0,0.0,88,0.00,,,0.00,Wunderground v.1.12,2013-01-23 21:25:00,
2013-01-23 14:30:00,25.8,22.7,30.01,South,177,0.0,0.0,88,0.00,,,0.00,Wunderground v.1.12,2013-01-23 21:30:00,
2013-01-23 14:35:00,26.0,22.9,30.01,South,177,0.0,0.0,88,0.00,,,0.00,Wunderground v.1.12,2013-01-23 21:35:00,
2013-01-23 14:40:00,25.8,22.5,30.01,South,178,0.0,0.0,87,0.00,,,0.00,Wunderground v.1.12,2013-01-23 21:40:00,
2013-01-23 14:45:00,26.0,22.7,30.01,South,178,0.0,0.0,87,0.00,,,0.00,Wunderground v.1.12,2013-01-23 21:45:00,
2013-01-23 14:55:00,26.1,23.0,30.01,South,177,0.0,0.0,88,0.00,,,0.00,Wunderground v.1.12,2013-01-23 21:55:00,
2013-01-23 15:00:00,26.1,22.8,30.01,South,178,0.0,0.0,87,0.00,,,0.00,Wunderground v.1.12,2013-01-23 22:00:00,
2013-01-23 15:05:00,26.1,22.8,30.00,South,178,0.0,0.0,87,0.00,,,0.00,Wunderground v.1.12,2013-01-23 22:05:00,
2013-01-23 15:10:00,25.9,22.8,30.00,South,178,0.0,0.0,88,0.00,,,0.00,Wunderground v.1.12,2013-01-23 22:10:00,
2013-01-23 15:15:00,26.0,22.7,30.00,South,178,0.0,0.0,87,0.00,,,0.00,Wunderground v.1.12,2013-01-23 22:15:00,
2013-01-23 15:20:00,25.9,22.6,30.00,South,178,0.0,0.0,87,0.00,,,0.00,Wunderground v.1.12,2013-01-23 22:20:00,
2013-01-23 15:30:00,25.8,22.7,30.00,South,178,0.0,0.0,88,0.00,,,0.00,Wunderground v.1.12,2013-01-23 22:30:00,
2013-01-23 15:35:00,26.0,22.7,30.00,South,178,0.0,0.0,87,0.00,,,0.00,Wunderground v.1.12,2013-01-23 22:35:00,
2013-01-23 15:40:00,25.9,22.6,30.00,South,178,0.0,0.0,87,0.00,,,0.00,Wunderground v.1.12,2013-01-23 22:40:00,
2013-01-23 15:45:00,26.1,22.8,30.00,South,178,0.0,0.0,87,0.00,,,0.00,Wunderground v.1.12,2013-01-23 22:45:00,
2013-01-23 15:50:00,25.9,22.8,29.99,South,178,0.0,0.0,88,0.00,,,0.00,Wunderground v.1.12,2013-01-23 22:50:00,
2013-01-23 15:55:00,25.8,22.7,29.99,South,178,0.0,0.0,88,0.00,,,0.00,Wunderground v.1.12,2013-01-23 22:55:00,
2013-01-23 16:00:00,26.1,23.0,29.99,South,178,0.0,0.0,88,0.00,,,0.00,Wunderground v.1.12,2013-01-23 23:00:00,
2013-01-23 16:05:00,26.1,23.0,29.99,South,178,0.0,0.0,88,0.00,,,0.00,Wunderground v.1.12,2013-01-23 23:05:00,
2013-01-23 16:10:00,25.9,22.8,29.99,South,178,0.0,0.0,88,0.00,,,0.00,Wunderground v.1.12,2013-01-23 23:10:00,
2013-01-23 16:15:00,25.8,22.5,29.99,South,178,0.0,0.0,87,0.00,,,0.00,Wunderground v.1.12,2013-01-23 23:15:00,
2013-01-23 16:20:00,25.8,22.7,29.98,South,178,0.0,0.0,88,0.00,,,0.00,Wunderground v.1.12,2013-01-23 23:20:00,
2013-01-23 16:25:00,25.8,22.5,29.98,South,178,0.0,0.0,87,0.00,,,0.00,Wunderground v.1.12,2013-01-23 23:25:00,
2013-01-23 16:35:00,25.7,22.4,29.98,South,178,0.0,0.0,87,0.00,,,0.00,Wunderground v.1.12,2013-01-23 23:35:00,
2013-01-23 16:40:00,25.4,22.3,29.98,South,178,0.0,0.0,88,0.00,,,0.00,Wunderground v.1.12,2013-01-23 23:40:00,
2013-01-23 16:45:00,25.6,22.5,29.98,South,178,0.0,0.0,88,0.00,,,0.00,Wunderground v.1.12,2013-01-23 23:45:00,
2013-01-23 16:50:00,25.5,22.4,29.98,South,178,0.0,0.0,88,0.00,,,0.00,Wunderground v.1.12,2013-01-23 23:50:00,
2013-01-23 16:55:00,25.6,22.5,29.97,South,178,0.0,0.0,88,0.00,,,0.00,Wunderground v.1.12,2013-01-23 23:55:00,
2013-01-23 17:05:00,25.7,22.6,29.97,South,178,0.0,0.0,88,0.00,,,0.00,Wunderground v.1.12,2013-01-24 00:05:00,
2013-01-23 17:10:00,25.6,22.5,29.97,South,178,0.0,0.0,88,0.00,,,0.00,Wunderground v.1.12,2013-01-24 00:10:00,
2013-01-23 17:15:00,25.4,22.3,29.97,South,178,0.0,0.0,88,0.00,,,0.00,Wunderground v.1.12,2013-01-24 00:15:00,
2013-01-23 17:20:00,25.5,22.4,29.97,South,178,0.0,0.0,88,0.00,,,0.00,Wunderground v.1.12,2013-01-24 00:20:00,
2013-01-23 17:30:00,25.3,22.2,29.97,South,178,0.0,0.0,88,0.00,,,0.00,Wunderground v.1.12,2013-01-24 00:30:00,
2013-01-23 17:40:00,25.3,22.5,29.96,South,173,0.0,0.0,89,0.00,,,0.00,Wunderground v.1.12,2013-01-24 00:40:00,
2013-01-23 17:45:00,25.0,22.2,29.96,South,173,0.0,0.0,89,0.00,,,0.00,Wunderground v.1.12,2013-01-24 00:45:00,
2013-01-23 17:50:00,24.8,22.0,29.96,South,173,0.0,0.0,89,0.00,,,0.00,Wunderground v.1.12,2013-01-24 00:50:00,
2013-01-23 17:55:00,25.3,22.5,29.96,South,173,0.0,0.0,89,0.00,,,0.00,Wunderground v.1.12,2013-01-24 00:55:00,
2013-01-23 18:00:00,24.9,22.1,29.96,South,173,0.0,0.0,89,0.00,,,0.00,Wunderground v.1.12,2013-01-24 01:00:00,
2013-01-23 18:10:00,24.9,22.1,29.97,South,173,0.0,0.0,89,0.00,,,0.00,Wunderground v.1.12,2013-01-24 01:10:00,
2013-01-23 18:15:00,24.7,21.9,29.96,South,173,0.0,0.0,89,0.00,,,0.00,Wunderground v.1.12,2013-01-24 01:15:00,
2013-01-23 18:20:00,24.8,22.0,29.96,South,173,0.0,0.0,89,0.00,,,0.00,Wunderground v.1.12,2013-01-24 01:20:00,
2013-01-23 18:25:00,24.9,22.4,29.96,South,173,0.0,0.0,90,0.00,,,0.00,Wunderground v.1.12,2013-01-24 01:25:00,
2013-01-23 18:30:00,24.7,22.2,29.96,South,173,0.0,0.0,90,0.00,,,0.00,Wunderground v.1.12,2013-01-24 01:30:00,
2013-01-23 18:35:00,25.1,22.6,29.96,South,173,0.0,0.0,90,0.00,,,0.00,Wunderground v.1.12,2013-01-24 01:35:00,
2013-01-23 18:45:00,24.8,22.3,29.96,South,173,0.0,0.0,90,0.00,,,0.00,Wunderground v.1.12,2013-01-24 01:45:00,
2013-01-23 18:50:00,25.0,22.5,29.97,South,173,0.0,0.0,90,0.00,,,0.00,Wunderground v.1.12,2013-01-24 01:50:00,
2013-01-23 18:55:00,24.9,22.6,29.97,South,173,0.0,0.0,91,0.00,,,0.00,Wunderground v.1.12,2013-01-24 01:55:00,
2013-01-23 19:00:00,24.9,22.6,29.97,South,173,0.0,0.0,91,0.00,,,0.00,Wunderground v.1.12,2013-01-24 02:00:00,
2013-01-23 19:05:00,25.0,22.5,29.97,N/A,-737280,0.0,0.0,90,0.00,,,0.00,Wunderground v.1.12,2013-01-24 02:05:00,
2013-01-23 19:15:00,24.7,22.4,29.97,South,174,0.0,0.0,91,0.00,,,0.00,Wunderground v.1.12,2013-01-24 02:15:00,
2013-01-23 19:20:00,24.7,22.7,29.97,South,175,0.0,0.0,92,0.00,,,0.00,Wunderground v.1.12,2013-01-24 02:20:00,
2013-01-23 19:25:00,25.0,23.0,29.97,South,174,0.0,0.0,92,0.00,,,0.00,Wunderground v.1.12,2013-01-24 02:25:00,
2013-01-23 19:30:00,25.0,23.0,29.98,South,174,0.0,0.0,92,0.00,,,0.00,Wunderground v.1.12,2013-01-24 02:30:00,
2013-01-23 19:35:00,24.9,22.6,29.97,South,175,0.0,0.0,91,0.00,,,0.00,Wunderground v.1.12,2013-01-24 02:35:00,
2013-01-23 19:40:00,25.2,22.7,29.98,South,174,0.0,0.0,90,0.00,,,0.00,Wunderground v.1.12,2013-01-24 02:40:00,
2013-01-23 19:50:00,24.9,22.6,29.98,South,174,0.0,0.0,91,0.00,,,0.00,Wunderground v.1.12,2013-01-24 02:50:00,
2013-01-23 19:55:00,25.2,22.9,29.98,South,174,0.0,0.0,91,0.00,,,0.00,Wunderground v.1.12,2013-01-24 02:55:00,
2013-01-23 20:00:00,25.0,22.7,29.98,South,174,0.0,0.0,91,0.00,,,0.00,Wunderground v.1.12,2013-01-24 03:00:00,
2013-01-23 20:05:00,25.2,22.9,29.98,South,169,0.0,0.0,91,0.00,,,0.00,Wunderground v.1.12,2013-01-24 03:05:00,
2013-01-23 20:10:00,25.3,23.0,29.98,South,169,0.0,0.0,91,0.00,,,0.00,Wunderground v.1.12,2013-01-24 03:10:00,
2013-01-23 20:15:00,25.3,23.0,29.98,South,169,0.0,0.0,91,0.00,,,0.00,Wunderground v.1.12,2013-01-24 03:15:00,
2013-01-23 20:20:00,25.5,23.2,29.97,SSE,168,0.0,0.0,91,0.00,,,0.00,Wunderground v.1.12,2013-01-24 03:20:00,
2013-01-23 20:25:00,25.4,23.1,29.98,South,169,0.0,0.0,91,0.00,,,0.00,Wunderground v.1.12,2013-01-24 03:25:00,
2013-01-23 20:30:00,25.4,23.1,29.97,South,169,0.0,0.0,91,0.00,,,0.00,Wunderground v.1.12,2013-01-24 03:30:00,
2013-01-23 20:35:00,25.3,23.3,29.98,South,169,0.0,0.0,92,0.00,,,0.00,Wunderground v.1.12,2013-01-24 03:35:00,
2013-01-23 20:40:00,25.5,23.5,29.98,South,169,0.0,0.0,92,0.00,,,0.00,Wunderground v.1.12,2013-01-24 03:40:00,
2013-01-23 20:50:00,25.6,23.6,29.98,South,169,0.0,0.0,92,0.00,,,0.00,Wunderground v.1.12,2013-01-24 03:50:00,
2013-01-23 20:55:00,25.5,23.2,29.98,South,169,0.0,0.0,91,0.00,,,0.00,Wunderground v.1.12,2013-01-24 03:55:00,
2013-01-23 21:00:00,25.8,23.8,29.97,South,169,0.0,0.0,92,0.00,,,0.00,Wunderground v.1.12,2013-01-24 04:00:00,
2013-01-23 21:05:00,25.7,23.7,29.98,SSE,168,0.0,0.0,92,0.00,,,0.00,Wunderground v.1.12,2013-01-24 04:05:00,
2013-01-23 21:10:00,25.5,23.5,29.97,South,169,0.0,0.0,92,0.00,,,0.00,Wunderground v.1.12,2013-01-24 04:10:00,
2013-01-23 21:15:00,25.5,23.5,29.97,South,169,0.0,0.0,92,0.00,,,0.00,Wunderground v.1.12,2013-01-24 04:15:00,
2013-01-23 21:25:00,25.5,23.8,29.98,South,169,0.0,0.0,93,0.00,,,0.00,Wunderground v.1.12,2013-01-24 04:25:00,
2013-01-23 21:30:00,25.8,23.8,29.98,SSE,168,0.0,0.0,92,0.00,,,0.00,Wunderground v.1.12,2013-01-24 04:30:00,
2013-01-23 21:35:00,25.7,24.0,29.97,South,169,0.0,0.0,93,0.00,,,0.00,Wunderground v.1.12,2013-01-24 04:35:00,
2013-01-23 21:40:00,25.7,24.0,29.97,South,169,0.0,0.0,93,0.00,,,0.00,Wunderground v.1.12,2013-01-24 04:40:00,
2013-01-23 21:45:00,25.7,24.0,29.97,South,169,0.0,0.0,93,0.00,,,0.00,Wunderground v.1.12,2013-01-24 04:45:00,
2013-01-23 21:55:00,25.8,24.3,29.97,South,169,0.0,0.0,94,0.00,,,0.00,Wunderground v.1.12,2013-01-24 04:55:00,
2013-01-23 22:00:00,25.7,24.2,29.97,South,169,0.0,0.0,94,0.00,,,0.00,Wunderground v.1.12,2013-01-24 05:00:00,
2013-01-23 22:10:00,25.8,24.6,29.97,South,169,0.0,0.0,95,0.00,,,0.00,Wunderground v.1.12,2013-01-24 05:10:00,
2013-01-23 22:15:00,25.9,24.7,29.96,South,169,0.0,0.0,95,0.00,,,0.00,Wunderground v.1.12,2013-01-24 05:15:00,
2013-01-23 22:20:00,25.7,24.5,29.96,South,169,0.0,0.0,95,0.00,,,0.00,Wunderground v.1.12,2013-01-24 05:20:00,
2013-01-23 22:25:00,25.4,24.2,29.96,South,169,0.0,0.0,95,0.00,,,0.00,Wunderground v.1.12,2013-01-24 05:25:00,
2013-01-23 22:30:00,25.6,24.4,29.96,South,169,0.0,0.0,95,0.00,,,0.00,Wunderground v.1.12,2013-01-24 05:30:00,
2013-01-23 22:35:00,25.6,24.4,29.96,South,169,0.0,0.0,95,0.00,,,0.00,Wunderground v.1.12,2013-01-24 05:35:00,
2013-01-23 22:40:00,25.7,24.5,29.95,South,169,0.0,0.0,95,0.00,,,0.00,Wunderground v.1.12,2013-01-24 05:40:00,
2013-01-23 22:45:00,25.7,24.7,29.95,South,169,0.0,0.0,96,0.00,,,0.00,Wunderground v.1.12,2013-01-24 05:45:00,
2013-01-23 22:50:00,25.9,24.9,29.94,South,169,0.0,0.0,96,0.00,,,0.00,Wunderground v.1.12,2013-01-24 05:50:00,
2013-01-23 22:55:00,25.8,24.6,29.94,South,169,0.0,0.0,95,0.00,,,0.00,Wunderground v.1.12,2013-01-24 05:55:00,
2013-01-23 23:00:00,26.0,24.8,29.94,South,170,0.0,0.0,95,0.00,,,0.00,Wunderground v.1.12,2013-01-24 06:00:00,
2013-01-23 23:05:00,25.9,24.9,29.94,South,171,0.0,0.0,96,0.00,,,0.00,Wunderground v.1.12,2013-01-24 06:05:00,
2013-01-23 23:10:00,25.7,24.7,29.94,South,171,0.0,0.0,96,0.00,,,0.00,Wunderground v.1.12,2013-01-24 06:10:00,
2013-01-23 23:15:00,25.9,24.9,29.94,South,170,0.0,0.0,96,0.00,,,0.00,Wunderground v.1.12,2013-01-24 06:15:00,
2013-01-23 23:20:00,25.8,24.8,29.94,South,170,0.0,0.0,96,0.00,,,0.00,Wunderground v.1.12,2013-01-24 06:20:00,
2013-01-23 23:25:00,25.8,24.8,29.95,South,171,0.0,0.0,96,0.00,,,0.00,Wunderground v.1.12,2013-01-24 06:25:00,
2013-01-23 23:35:00,25.9,25.2,29.94,South,170,0.0,0.0,97,0.00,,,0.00,Wunderground v.1.12,2013-01-24 06:35:00,
2013-01-23 23:40:00,25.7,25.0,29.94,South,170,0.0,0.0,97,0.00,,,0.00,Wunderground v.1.12,2013-01-24 06:40:00,
2013-01-23 23:45:00,26.0,25.3,29.94,South,171,0.0,0.0,97,0.00,,,0.00,Wunderground v.1.12,2013-01-24 06:45:00,
2013-01-23 23:50:00,26.0,25.3,29.93,South,170,0.0,0.0,97,0.00,,,0.00,Wunderground v.1.12,2013-01-24 06:50:00,
2013-01-23 23:55:00,26.0,25.3,29.94,South,170,0.0,0.0,97,0.00,,,0.00,Wunderground v.1.12,2013-01-24 06:55:00,